Watts Bar Dam, Tennessee
Current Conditions -  °F | °C
As of 9:35 PM on Tuesday 21 Oct 2014 (Local Time) from KMMI Reporting Station
Few Clouds Few Clouds  
Wind Chill: 55°   Ceiling: Unl
Heat Index: 55°   Visibility: 10mi
Dew Point: 43°   Wind: 3mph
Humidity: 63%   Direction: 360°N
Pressure: 30.08"   Gusts: NA
Location:  35.61°N, 84.76°W
Report Text: KMMI 220135Z AUTO 36003KT 10SM FEW055 13/06 A3008 RMK
Loading
Personal Weather Stations






























Interactive Weather Map
Tropical Storm Tracking
New forecast layout! Learn more

10-Day Weather Forecast

Advertisements
Track Severe Weather on mobile